sensor_id;sensor_type;location;lat;lon;timestamp;temperature;humidity
13713;DHT22;6928;50.546;7.120;2023-04-30T00:00:10;9.99;88.85
13713;DHT22;6928;50.546;7.120;2023-04-30T00:02:38;9.98;88.93
13713;DHT22;6928;50.546;7.120;2023-04-30T00:05:05;9.99;88.80
13713;DHT22;6928;50.546;7.120;2023-04-30T00:07:32;10.08;88.83
13713;DHT22;6928;50.546;7.120;2023-04-30T00:09:59;10.15;88.78
13713;DHT22;6928;50.546;7.120;2023-04-30T00:12:25;10.13;88.67
13713;DHT22;6928;50.546;7.120;2023-04-30T00:14:52;10.06;88.56
13713;DHT22;6928;50.546;7.120;2023-04-30T00:17:22;10.02;88.75
13713;DHT22;6928;50.546;7.120;2023-04-30T00:19:48;10.08;88.71
13713;DHT22;6928;50.546;7.120;2023-04-30T00:22:16;10.13;88.72
13713;DHT22;6928;50.546;7.120;2023-04-30T00:24:43;10.01;88.61
13713;DHT22;6928;50.546;7.120;2023-04-30T00:27:09;9.95;88.75
13713;DHT22;6928;50.546;7.120;2023-04-30T00:29:37;9.98;88.82
13713;DHT22;6928;50.546;7.120;2023-04-30T00:32:04;10.01;88.78
13713;DHT22;6928;50.546;7.120;2023-04-30T00:34:32;10.03;88.65
13713;DHT22;6928;50.546;7.120;2023-04-30T00:36:59;9.95;88.86
13713;DHT22;6928;50.546;7.120;2023-04-30T00:39:26;9.97;89.25
13713;DHT22;6928;50.546;7.120;2023-04-30T00:41:52;9.98;89.22
13713;DHT22;6928;50.546;7.120;2023-04-30T00:44:19;9.99;89.04
13713;DHT22;6928;50.546;7.120;2023-04-30T00:46:46;9.99;88.90
13713;DHT22;6928;50.546;7.120;2023-04-30T00:49:13;10.09;88.81
13713;DHT22;6928;50.546;7.120;2023-04-30T00:51:41;10.02;88.65
13713;DHT22;6928;50.546;7.120;2023-04-30T00:54:07;10.03;88.72
13713;DHT22;6928;50.546;7.120;2023-04-30T00:56:34;10.05;88.74
13713;DHT22;6928;50.546;7.120;2023-04-30T00:59:01;10.03;88.93
13713;DHT22;6928;50.546;7.120;2023-04-30T01:01:28;10.10;88.96
13713;DHT22;6928;50.546;7.120;2023-04-30T01:03:56;10.13;88.61
13713;DHT22;6928;50.546;7.120;2023-04-30T01:06:24;10.02;88.58
13713;DHT22;6928;50.546;7.120;2023-04-30T01:08:53;9.99;88.73
13713;DHT22;6928;50.546;7.120;2023-04-30T01:11:39;10.02;89.12
13713;DHT22;6928;50.546;7.120;2023-04-30T01:14:16;9.99;89.28
13713;DHT22;6928;50.546;7.120;2023-04-30T01:16:51;10.10;89.30
13713;DHT22;6928;50.546;7.120;2023-04-30T01:19:34;10.08;89.10
13713;DHT22;6928;50.546;7.120;2023-04-30T01:22:03;10.05;89.04
13713;DHT22;6928;50.546;7.120;2023-04-30T01:24:48;10.03;89.17
13713;DHT22;6928;50.546;7.120;2023-04-30T01:27:29;10.03;89.26
13713;DHT22;6928;50.546;7.120;2023-04-30T01:30:01;9.97;89.38
13713;DHT22;6928;50.546;7.120;2023-04-30T01:32:29;10.03;89.25
13713;DHT22;6928;50.546;7.120;2023-04-30T01:34:55;10.03;89.15
13713;DHT22;6928;50.546;7.120;2023-04-30T01:37:33;10.02;89.13
13713;DHT22;6928;50.546;7.120;2023-04-30T01:40:20;10.03;89.08
13713;DHT22;6928;50.546;7.120;2023-04-30T01:42:57;10.02;89.14
13713;DHT22;6928;50.546;7.120;2023-04-30T01:45:44;9.95;89.56
13713;DHT22;6928;50.546;7.120;2023-04-30T01:48:21;9.91;89.66
13713;DHT22;6928;50.546;7.120;2023-04-30T01:51:01;9.95;89.56
13713;DHT22;6928;50.546;7.120;2023-04-30T01:53:40;9.97;89.59
13713;DHT22;6928;50.546;7.120;2023-04-30T01:56:11;9.95;89.58
13713;DHT22;6928;50.546;7.120;2023-04-30T01:58:41;9.89;89.59
13713;DHT22;6928;50.546;7.120;2023-04-30T02:01:25;9.92;89.54
13713;DHT22;6928;50.546;7.120;2023-04-30T02:03:52;9.85;89.67
13713;DHT22;6928;50.546;7.120;2023-04-30T02:06:19;9.91;89.51
13713;DHT22;6928;50.546;7.120;2023-04-30T02:08:46;9.95;89.06
13713;DHT22;6928;50.546;7.120;2023-04-30T02:11:12;10.02;88.60
13713;DHT22;6928;50.546;7.120;2023-04-30T02:13:39;9.94;88.45
13713;DHT22;6928;50.546;7.120;2023-04-30T02:16:06;9.82;88.56
13713;DHT22;6928;50.546;7.120;2023-04-30T02:18:34;9.79;88.66
13713;DHT22;6928;50.546;7.120;2023-04-30T02:21:01;9.81;88.61
13713;DHT22;6928;50.546;7.120;2023-04-30T02:23:28;9.68;88.57
13713;DHT22;6928;50.546;7.120;2023-04-30T02:25:55;9.62;88.93
13713;DHT22;6928;50.546;7.120;2023-04-30T02:28:21;9.68;88.77
13713;DHT22;6928;50.546;7.120;2023-04-30T02:30:48;9.65;88.59
13713;DHT22;6928;50.546;7.120;2023-04-30T02:33:15;9.40;88.57
13713;DHT22;6928;50.546;7.120;2023-04-30T02:35:43;9.33;89.23
13713;DHT22;6928;50.546;7.120;2023-04-30T02:38:10;9.36;89.29
13713;DHT22;6928;50.546;7.120;2023-04-30T02:40:37;9.36;89.33
13713;DHT22;6928;50.546;7.120;2023-04-30T02:43:06;9.30;89.35
13713;DHT22;6928;50.546;7.120;2023-04-30T02:45:32;9.26;89.22
13713;DHT22;6928;50.546;7.120;2023-04-30T02:47:59;9.16;89.15
13713;DHT22;6928;50.546;7.120;2023-04-30T02:50:26;9.06;89.19
13713;DHT22;6928;50.546;7.120;2023-04-30T02:52:54;9.02;89.54
13713;DHT22;6928;50.546;7.120;2023-04-30T02:55:21;8.98;89.61
13713;DHT22;6928;50.546;7.120;2023-04-30T02:57:48;8.93;89.62
13713;DHT22;6928;50.546;7.120;2023-04-30T03:00:14;8.87;89.46
13713;DHT22;6928;50.546;7.120;2023-04-30T03:02:42;8.67;89.67
13713;DHT22;6928;50.546;7.120;2023-04-30T03:05:09;8.68;89.71
13713;DHT22;6928;50.546;7.120;2023-04-30T03:07:36;8.51;89.70
13713;DHT22;6928;50.546;7.120;2023-04-30T03:10:06;8.65;89.80
13713;DHT22;6928;50.546;7.120;2023-04-30T03:12:33;8.71;89.50
13713;DHT22;6928;50.546;7.120;2023-04-30T03:15:00;8.48;89.35
13713;DHT22;6928;50.546;7.120;2023-04-30T03:17:27;8.38;89.60
13713;DHT22;6928;50.546;7.120;2023-04-30T03:19:53;8.44;89.68
13713;DHT22;6928;50.546;7.120;2023-04-30T03:22:20;8.37;89.73
13713;DHT22;6928;50.546;7.120;2023-04-30T03:24:48;8.21;89.90
13713;DHT22;6928;50.546;7.120;2023-04-30T03:27:16;8.21;90.07
13713;DHT22;6928;50.546;7.120;2023-04-30T03:29:43;8.26;90.09
13713;DHT22;6928;50.546;7.120;2023-04-30T03:32:10;8.12;90.15
13713;DHT22;6928;50.546;7.120;2023-04-30T03:34:37;7.95;90.55
13713;DHT22;6928;50.546;7.120;2023-04-30T03:37:04;7.86;90.82
13713;DHT22;6928;50.546;7.120;2023-04-30T03:39:30;7.96;90.80
13713;DHT22;6928;50.546;7.120;2023-04-30T03:41:57;8.03;90.56
13713;DHT22;6928;50.546;7.120;2023-04-30T03:44:25;7.98;90.45
13713;DHT22;6928;50.546;7.120;2023-04-30T03:46:52;8.02;90.22
13713;DHT22;6928;50.546;7.120;2023-04-30T03:49:19;8.02;90.01
13713;DHT22;6928;50.546;7.120;2023-04-30T03:51:45;8.12;89.72
13713;DHT22;6928;50.546;7.120;2023-04-30T03:54:12;7.72;91.38
13713;DHT22;6928;50.546;7.120;2023-04-30T03:56:39;7.93;90.49
13713;DHT22;6928;50.546;7.120;2023-04-30T03:59:06;7.82;89.96
13713;DHT22;6928;50.546;7.120;2023-04-30T04:01:35;7.78;90.02
13713;DHT22;6928;50.546;7.120;2023-04-30T04:04:02;7.56;89.95
13713;DHT22;6928;50.546;7.120;2023-04-30T04:06:28;7.55;89.87
13713;DHT22;6928;50.546;7.120;2023-04-30T04:08:56;7.62;89.52
13713;DHT22;6928;50.546;7.120;2023-04-30T04:11:22;7.55;89.34
13713;DHT22;6928;50.546;7.120;2023-04-30T04:13:49;7.59;89.19
13713;DHT22;6928;50.546;7.120;2023-04-30T04:16:16;7.66;88.90
13713;DHT22;6928;50.546;7.120;2023-04-30T04:18:44;7.52;89.01
13713;DHT22;6928;50.546;7.120;2023-04-30T04:21:11;7.52;88.98
13713;DHT22;6928;50.546;7.120;2023-04-30T04:23:37;7.63;88.70
13713;DHT22;6928;50.546;7.120;2023-04-30T04:26:04;7.55;88.50
13713;DHT22;6928;50.546;7.120;2023-04-30T04:28:31;7.42;88.69
13713;DHT22;6928;50.546;7.120;2023-04-30T04:30:58;7.38;88.78
13713;DHT22;6928;50.546;7.120;2023-04-30T04:33:25;7.38;89.00
13713;DHT22;6928;50.546;7.120;2023-04-30T04:35:53;7.35;88.98
13713;DHT22;6928;50.546;7.120;2023-04-30T04:38:22;7.47;88.78
13713;DHT22;6928;50.546;7.120;2023-04-30T04:40:53;7.41;88.79
13713;DHT22;6928;50.546;7.120;2023-04-30T04:43:20;7.37;88.96
13713;DHT22;6928;50.546;7.120;2023-04-30T04:45:47;7.28;89.68
13713;DHT22;6928;50.546;7.120;2023-04-30T04:48:14;7.38;89.70
13713;DHT22;6928;50.546;7.120;2023-04-30T04:50:41;7.40;89.85
13713;DHT22;6928;50.546;7.120;2023-04-30T04:53:09;7.40;89.80
13713;DHT22;6928;50.546;7.120;2023-04-30T04:55:36;7.40;90.02
13713;DHT22;6928;50.546;7.120;2023-04-30T04:58:02;7.35;90.37
13713;DHT22;6928;50.546;7.120;2023-04-30T05:00:29;7.34;90.50
13713;DHT22;6928;50.546;7.120;2023-04-30T05:02:56;7.31;90.52
13713;DHT22;6928;50.546;7.120;2023-04-30T05:05:22;7.52;90.38
13713;DHT22;6928;50.546;7.120;2023-04-30T05:07:49;7.56;90.41
13713;DHT22;6928;50.546;7.120;2023-04-30T05:10:20;7.65;90.26
13713;DHT22;6928;50.546;7.120;2023-04-30T05:12:47;7.71;90.36
13713;DHT22;6928;50.546;7.120;2023-04-30T05:15:14;7.61;90.60
13713;DHT22;6928;50.546;7.120;2023-04-30T05:17:41;7.71;90.66
13713;DHT22;6928;50.546;7.120;2023-04-30T05:20:09;7.68;90.84
13713;DHT22;6928;50.546;7.120;2023-04-30T05:22:37;7.75;90.71
13713;DHT22;6928;50.546;7.120;2023-04-30T05:25:04;7.81;90.50
13713;DHT22;6928;50.546;7.120;2023-04-30T05:27:33;7.92;90.37
13713;DHT22;6928;50.546;7.120;2023-04-30T05:30:01;7.93;90.44
13713;DHT22;6928;50.546;7.120;2023-04-30T05:32:28;7.98;90.51
13713;DHT22;6928;50.546;7.120;2023-04-30T05:34:55;8.02;90.45
13713;DHT22;6928;50.546;7.120;2023-04-30T05:37:22;8.16;90.50
13713;DHT22;6928;50.546;7.120;2023-04-30T05:39:48;8.13;91.00
13713;DHT22;6928;50.546;7.120;2023-04-30T05:42:15;8.20;90.76
13713;DHT22;6928;50.546;7.120;2023-04-30T05:44:43;8.30;90.59
13713;DHT22;6928;50.546;7.120;2023-04-30T05:47:10;8.26;90.78
13713;DHT22;6928;50.546;7.120;2023-04-30T05:49:37;8.20;91.24
13713;DHT22;6928;50.546;7.120;2023-04-30T05:52:04;8.20;91.27
13713;DHT22;6928;50.546;7.120;2023-04-30T05:54:31;8.33;91.25
13713;DHT22;6928;50.546;7.120;2023-04-30T05:56:58;8.44;90.91
13713;DHT22;6928;50.546;7.120;2023-04-30T05:59:25;8.51;91.01
13713;DHT22;6928;50.546;7.120;2023-04-30T06:01:53;8.50;91.22
13713;DHT22;6928;50.546;7.120;2023-04-30T06:04:19;8.57;90.76
13713;DHT22;6928;50.546;7.120;2023-04-30T06:06:46;8.69;90.72
13713;DHT22;6928;50.546;7.120;2023-04-30T06:09:13;8.67;90.69
13713;DHT22;6928;50.546;7.120;2023-04-30T06:11:40;8.64;91.04
13713;DHT22;6928;50.546;7.120;2023-04-30T06:14:07;8.81;91.16
13713;DHT22;6928;50.546;7.120;2023-04-30T06:16:34;8.99;90.35
13713;DHT22;6928;50.546;7.120;2023-04-30T06:19:02;8.81;90.68
13713;DHT22;6928;50.546;7.120;2023-04-30T06:21:29;9.03;90.48
13713;DHT22;6928;50.546;7.120;2023-04-30T06:23:56;9.03;90.10
13713;DHT22;6928;50.546;7.120;2023-04-30T06:26:23;9.06;90.11
13713;DHT22;6928;50.546;7.120;2023-04-30T06:28:50;9.15;90.04
13713;DHT22;6928;50.546;7.120;2023-04-30T06:31:16;9.27;89.66
13713;DHT22;6928;50.546;7.120;2023-04-30T06:33:43;9.36;89.60
13713;DHT22;6928;50.546;7.120;2023-04-30T06:36:11;9.47;89.36
13713;DHT22;6928;50.546;7.120;2023-04-30T06:38:39;9.52;89.15
13713;DHT22;6928;50.546;7.120;2023-04-30T06:41:07;9.74;89.12
13713;DHT22;6928;50.546;7.120;2023-04-30T06:43:33;9.78;88.63
13713;DHT22;6928;50.546;7.120;2023-04-30T06:46:00;9.57;89.01
13713;DHT22;6928;50.546;7.120;2023-04-30T06:48:28;9.84;88.67
13713;DHT22;6928;50.546;7.120;2023-04-30T06:50:56;9.94;88.29
13713;DHT22;6928;50.546;7.120;2023-04-30T06:53:24;10.01;88.01
13713;DHT22;6928;50.546;7.120;2023-04-30T06:55:51;10.19;88.30
13713;DHT22;6928;50.546;7.120;2023-04-30T06:58:18;10.25;87.82
13713;DHT22;6928;50.546;7.120;2023-04-30T07:00:45;10.29;87.47
13713;DHT22;6928;50.546;7.120;2023-04-30T07:03:11;10.55;87.48
13713;DHT22;6928;50.546;7.120;2023-04-30T07:05:39;10.47;87.28
13713;DHT22;6928;50.546;7.120;2023-04-30T07:08:06;10.32;87.55
13713;DHT22;6928;50.546;7.120;2023-04-30T07:10:34;10.23;87.55
13713;DHT22;6928;50.546;7.120;2023-04-30T07:13:01;10.39;87.37
13713;DHT22;6928;50.546;7.120;2023-04-30T07:15:28;10.33;87.15
13713;DHT22;6928;50.546;7.120;2023-04-30T07:17:54;10.53;86.97
13713;DHT22;6928;50.546;7.120;2023-04-30T07:20:21;10.66;86.32
13713;DHT22;6928;50.546;7.120;2023-04-30T07:22:48;10.67;86.06
13713;DHT22;6928;50.546;7.120;2023-04-30T07:25:15;10.89;85.93
13713;DHT22;6928;50.546;7.120;2023-04-30T07:27:43;11.11;85.11
13713;DHT22;6928;50.546;7.120;2023-04-30T07:30:11;11.28;84.45
13713;DHT22;6928;50.546;7.120;2023-04-30T07:32:38;11.20;83.89
13713;DHT22;6928;50.546;7.120;2023-04-30T07:35:05;11.49;83.34
13713;DHT22;6928;50.546;7.120;2023-04-30T07:37:33;11.87;81.66
13713;DHT22;6928;50.546;7.120;2023-04-30T07:39:59;11.65;79.66
13713;DHT22;6928;50.546;7.120;2023-04-30T07:42:26;11.59;80.50
13713;DHT22;6928;50.546;7.120;2023-04-30T07:44:54;11.83;80.02
13713;DHT22;6928;50.546;7.120;2023-04-30T07:47:21;12.07;78.10
13713;DHT22;6928;50.546;7.120;2023-04-30T07:49:49;12.18;76.39
13713;DHT22;6928;50.546;7.120;2023-04-30T07:52:16;12.01;76.77
13713;DHT22;6928;50.546;7.120;2023-04-30T07:54:43;11.91;77.24
13713;DHT22;6928;50.546;7.120;2023-04-30T07:57:10;12.21;75.10
13713;DHT22;6928;50.546;7.120;2023-04-30T07:59:37;12.53;74.14
13713;DHT22;6928;50.546;7.120;2023-04-30T08:02:07;12.75;73.41
13713;DHT22;6928;50.546;7.120;2023-04-30T08:04:34;12.92;72.47
13713;DHT22;6928;50.546;7.120;2023-04-30T08:07:00;13.10;72.28
13713;DHT22;6928;50.546;7.120;2023-04-30T08:09:28;12.93;72.76
13713;DHT22;6928;50.546;7.120;2023-04-30T08:11:55;13.04;72.59
13713;DHT22;6928;50.546;7.120;2023-04-30T08:14:22;13.13;71.55
13713;DHT22;6928;50.546;7.120;2023-04-30T08:16:49;13.38;71.34
13713;DHT22;6928;50.546;7.120;2023-04-30T08:19:17;13.17;72.85
13713;DHT22;6928;50.546;7.120;2023-04-30T08:21:43;13.25;73.35
13713;DHT22;6928;50.546;7.120;2023-04-30T08:24:10;13.28;71.93
13713;DHT22;6928;50.546;7.120;2023-04-30T08:26:37;13.48;72.60
13713;DHT22;6928;50.546;7.120;2023-04-30T08:29:04;13.82;71.88
13713;DHT22;6928;50.546;7.120;2023-04-30T08:31:32;13.83;69.33
13713;DHT22;6928;50.546;7.120;2023-04-30T08:33:59;14.25;70.21
13713;DHT22;6928;50.546;7.120;2023-04-30T08:36:27;14.13;69.35
13713;DHT22;6928;50.546;7.120;2023-04-30T08:38:54;14.31;70.01
13713;DHT22;6928;50.546;7.120;2023-04-30T08:41:25;14.71;68.01
13713;DHT22;6928;50.546;7.120;2023-04-30T08:43:52;14.93;66.16
13713;DHT22;6928;50.546;7.120;2023-04-30T08:46:19;14.71;66.49
13713;DHT22;6928;50.546;7.120;2023-04-30T08:48:47;14.38;66.41
13713;DHT22;6928;50.546;7.120;2023-04-30T08:51:14;14.37;64.76
13713;DHT22;6928;50.546;7.120;2023-04-30T08:53:43;14.61;65.98
13713;DHT22;6928;50.546;7.120;2023-04-30T08:56:11;15.02;64.40
13713;DHT22;6928;50.546;7.120;2023-04-30T08:58:39;15.13;63.86
13713;DHT22;6928;50.546;7.120;2023-04-30T09:01:08;14.89;63.92
13713;DHT22;6928;50.546;7.120;2023-04-30T09:03:35;14.54;64.29
13713;DHT22;6928;50.546;7.120;2023-04-30T09:06:02;15.10;63.22
13713;DHT22;6928;50.546;7.120;2023-04-30T09:08:44;15.37;61.98
13713;DHT22;6928;50.546;7.120;2023-04-30T09:11:23;15.36;63.37
13713;DHT22;6928;50.546;7.120;2023-04-30T09:13:51;14.96;62.90
13713;DHT22;6928;50.546;7.120;2023-04-30T09:16:19;15.51;63.04
13713;DHT22;6928;50.546;7.120;2023-04-30T09:18:46;15.17;59.59
13713;DHT22;6928;50.546;7.120;2023-04-30T09:21:14;15.62;59.28
13713;DHT22;6928;50.546;7.120;2023-04-30T09:23:55;15.27;58.66
13713;DHT22;6928;50.546;7.120;2023-04-30T09:26:30;16.01;57.20
13713;DHT22;6928;50.546;7.120;2023-04-30T09:28:58;16.30;57.11
13713;DHT22;6928;50.546;7.120;2023-04-30T09:31:26;16.23;56.37
13713;DHT22;6928;50.546;7.120;2023-04-30T09:33:59;15.78;55.83
13713;DHT22;6928;50.546;7.120;2023-04-30T09:36:31;16.63;57.08
13713;DHT22;6928;50.546;7.120;2023-04-30T09:39:06;16.13;55.13
13713;DHT22;6928;50.546;7.120;2023-04-30T09:41:36;16.83;54.24
13713;DHT22;6928;50.546;7.120;2023-04-30T09:44:03;16.23;54.70
13713;DHT22;6928;50.546;7.120;2023-04-30T09:46:32;15.88;55.00
13713;DHT22;6928;50.546;7.120;2023-04-30T09:49:04;15.92;55.02
13713;DHT22;6928;50.546;7.120;2023-04-30T09:51:31;16.74;54.40
13713;DHT22;6928;50.546;7.120;2023-04-30T09:54:02;16.94;52.30
13713;DHT22;6928;50.546;7.120;2023-04-30T09:56:32;17.05;52.03
13713;DHT22;6928;50.546;7.120;2023-04-30T09:59:00;16.85;50.60
13713;DHT22;6928;50.546;7.120;2023-04-30T10:01:29;17.18;49.74
13713;DHT22;6928;50.546;7.120;2023-04-30T10:03:56;16.60;51.60
13713;DHT22;6928;50.546;7.120;2023-04-30T10:06:24;17.26;51.71
13713;DHT22;6928;50.546;7.120;2023-04-30T10:08:56;17.07;50.94
13713;DHT22;6928;50.546;7.120;2023-04-30T10:11:27;16.88;52.17
13713;DHT22;6928;50.546;7.120;2023-04-30T10:14:02;16.78;51.83
13713;DHT22;6928;50.546;7.120;2023-04-30T10:16:39;16.85;50.37
13713;DHT22;6928;50.546;7.120;2023-04-30T10:19:13;16.72;51.78
13713;DHT22;6928;50.546;7.120;2023-04-30T10:21:41;17.19;50.58
13713;DHT22;6928;50.546;7.120;2023-04-30T10:24:09;17.21;51.08
13713;DHT22;6928;50.546;7.120;2023-04-30T10:26:36;17.21;51.13
13713;DHT22;6928;50.546;7.120;2023-04-30T10:29:06;17.29;50.63
13713;DHT22;6928;50.546;7.120;2023-04-30T10:31:34;17.30;51.42
13713;DHT22;6928;50.546;7.120;2023-04-30T10:34:11;17.25;47.86
13713;DHT22;6928;50.546;7.120;2023-04-30T10:36:44;17.33;49.40
13713;DHT22;6928;50.546;7.120;2023-04-30T10:39:14;18.15;48.88
13713;DHT22;6928;50.546;7.120;2023-04-30T10:41:44;18.07;49.22
13713;DHT22;6928;50.546;7.120;2023-04-30T10:44:13;17.94;48.45
13713;DHT22;6928;50.546;7.120;2023-04-30T10:46:41;17.59;49.61
13713;DHT22;6928;50.546;7.120;2023-04-30T10:49:11;17.39;49.40
13713;DHT22;6928;50.546;7.120;2023-04-30T10:51:49;17.47;50.21
13713;DHT22;6928;50.546;7.120;2023-04-30T10:54:24;17.59;49.83
13713;DHT22;6928;50.546;7.120;2023-04-30T10:56:52;17.86;49.62
13713;DHT22;6928;50.546;7.120;2023-04-30T10:59:22;17.40;48.67
13713;DHT22;6928;50.546;7.120;2023-04-30T11:01:58;17.54;49.81
13713;DHT22;6928;50.546;7.120;2023-04-30T11:04:26;17.46;49.39
13713;DHT22;6928;50.546;7.120;2023-04-30T11:07:06;17.74;50.02
13713;DHT22;6928;50.546;7.120;2023-04-30T11:09:36;17.36;49.94
13713;DHT22;6928;50.546;7.120;2023-04-30T11:12:09;17.49;48.80
13713;DHT22;6928;50.546;7.120;2023-04-30T11:14:42;17.22;50.13
13713;DHT22;6928;50.546;7.120;2023-04-30T11:17:11;17.15;50.49
13713;DHT22;6928;50.546;7.120;2023-04-30T11:19:59;17.22;50.99
13713;DHT22;6928;50.546;7.120;2023-04-30T11:22:27;17.29;49.96
13713;DHT22;6928;50.546;7.120;2023-04-30T11:25:04;17.28;49.27
13713;DHT22;6928;50.546;7.120;2023-04-30T11:27:33;17.74;49.60
13713;DHT22;6928;50.546;7.120;2023-04-30T11:30:05;17.56;48.11
13713;DHT22;6928;50.546;7.120;2023-04-30T11:32:36;17.53;49.11
13713;DHT22;6928;50.546;7.120;2023-04-30T11:35:05;17.43;49.25
13713;DHT22;6928;50.546;7.120;2023-04-30T11:37:33;18.07;47.83
13713;DHT22;6928;50.546;7.120;2023-04-30T11:40:02;18.87;45.79
13713;DHT22;6928;50.546;7.120;2023-04-30T11:42:29;18.76;47.42
13713;DHT22;6928;50.546;7.120;2023-04-30T11:45:06;18.07;47.36
13713;DHT22;6928;50.546;7.120;2023-04-30T11:47:41;18.00;47.65
13713;DHT22;6928;50.546;7.120;2023-04-30T11:50:09;18.15;47.36
13713;DHT22;6928;50.546;7.120;2023-04-30T11:52:37;18.24;46.84
13713;DHT22;6928;50.546;7.120;2023-04-30T11:55:14;18.28;48.18
13713;DHT22;6928;50.546;7.120;2023-04-30T11:57:43;18.01;46.58
13713;DHT22;6928;50.546;7.120;2023-04-30T12:00:13;18.14;46.96
13713;DHT22;6928;50.546;7.120;2023-04-30T12:02:41;18.32;47.40
13713;DHT22;6928;50.546;7.120;2023-04-30T12:05:13;18.53;45.98
13713;DHT22;6928;50.546;7.120;2023-04-30T12:07:46;18.42;46.52
13713;DHT22;6928;50.546;7.120;2023-04-30T12:10:13;18.29;46.50
13713;DHT22;6928;50.546;7.120;2023-04-30T12:12:42;18.48;47.08
13713;DHT22;6928;50.546;7.120;2023-04-30T12:15:17;18.69;46.11
13713;DHT22;6928;50.546;7.120;2023-04-30T12:17:52;18.52;45.91
13713;DHT22;6928;50.546;7.120;2023-04-30T12:20:20;18.93;45.38
13713;DHT22;6928;50.546;7.120;2023-04-30T12:22:48;18.42;45.62
13713;DHT22;6928;50.546;7.120;2023-04-30T12:25:16;18.38;46.40
13713;DHT22;6928;50.546;7.120;2023-04-30T12:27:46;18.18;46.40
13713;DHT22;6928;50.546;7.120;2023-04-30T12:30:17;18.21;45.67
13713;DHT22;6928;50.546;7.120;2023-04-30T12:32:49;18.87;46.06
13713;DHT22;6928;50.546;7.120;2023-04-30T12:35:18;18.58;45.10
13713;DHT22;6928;50.546;7.120;2023-04-30T12:37:47;18.60;45.42
13713;DHT22;6928;50.546;7.120;2023-04-30T12:40:18;18.90;44.86
13713;DHT22;6928;50.546;7.120;2023-04-30T12:42:45;18.83;45.16
13713;DHT22;6928;50.546;7.120;2023-04-30T12:47:56;18.81;42.93
13713;DHT22;6928;50.546;7.120;2023-04-30T12:50:23;18.52;44.23
13713;DHT22;6928;50.546;7.120;2023-04-30T12:52:50;18.77;43.61
13713;DHT22;6928;50.546;7.120;2023-04-30T12:55:18;18.84;43.28
13713;DHT22;6928;50.546;7.120;2023-04-30T12:58:06;18.69;43.93
13713;DHT22;6928;50.546;7.120;2023-04-30T13:00:48;19.11;43.45
13713;DHT22;6928;50.546;7.120;2023-04-30T13:03:18;18.86;43.29
13713;DHT22;6928;50.546;7.120;2023-04-30T13:05:47;19.34;43.11
13713;DHT22;6928;50.546;7.120;2023-04-30T13:08:14;19.37;41.72
13713;DHT22;6928;50.546;7.120;2023-04-30T13:10:41;18.90;42.82
13713;DHT22;6928;50.546;7.120;2023-04-30T13:13:09;19.31;41.83
13713;DHT22;6928;50.546;7.120;2023-04-30T13:15:36;19.66;41.27
13713;DHT22;6928;50.546;7.120;2023-04-30T13:18:04;19.66;41.36
13713;DHT22;6928;50.546;7.120;2023-04-30T13:20:33;19.08;41.57
13713;DHT22;6928;50.546;7.120;2023-04-30T13:23:00;19.59;40.67
13713;DHT22;6928;50.546;7.120;2023-04-30T13:25:26;19.18;41.19
13713;DHT22;6928;50.546;7.120;2023-04-30T13:27:53;19.41;40.39
13713;DHT22;6928;50.546;7.120;2023-04-30T13:30:21;19.35;42.22
13713;DHT22;6928;50.546;7.120;2023-04-30T13:32:48;19.14;41.85
13713;DHT22;6928;50.546;7.120;2023-04-30T13:35:18;19.18;43.09
13713;DHT22;6928;50.546;7.120;2023-04-30T13:37:44;19.21;43.23
13713;DHT22;6928;50.546;7.120;2023-04-30T13:40:12;19.37;42.97
13713;DHT22;6928;50.546;7.120;2023-04-30T13:42:41;19.28;42.80
13713;DHT22;6928;50.546;7.120;2023-04-30T13:45:09;19.66;43.29
13713;DHT22;6928;50.546;7.120;2023-04-30T13:47:36;19.61;42.78
13713;DHT22;6928;50.546;7.120;2023-04-30T13:50:03;19.47;42.02
13713;DHT22;6928;50.546;7.120;2023-04-30T13:52:32;19.51;42.63
13713;DHT22;6928;50.546;7.120;2023-04-30T13:55:01;19.37;41.61
13713;DHT22;6928;50.546;7.120;2023-04-30T13:57:29;19.27;42.00
13713;DHT22;6928;50.546;7.120;2023-04-30T13:59:58;19.01;44.46
13713;DHT22;6928;50.546;7.120;2023-04-30T14:02:25;19.01;44.33
13713;DHT22;6928;50.546;7.120;2023-04-30T14:04:53;19.14;43.73
13713;DHT22;6928;50.546;7.120;2023-04-30T14:07:20;19.00;44.17
13713;DHT22;6928;50.546;7.120;2023-04-30T14:09:49;19.12;42.03
13713;DHT22;6928;50.546;7.120;2023-04-30T14:12:16;19.39;43.43
13713;DHT22;6928;50.546;7.120;2023-04-30T14:14:43;19.34;41.79
13713;DHT22;6928;50.546;7.120;2023-04-30T14:17:09;19.38;41.85
13713;DHT22;6928;50.546;7.120;2023-04-30T14:19:36;19.48;42.73
13713;DHT22;6928;50.546;7.120;2023-04-30T14:22:03;20.13;40.07
13713;DHT22;6928;50.546;7.120;2023-04-30T14:24:30;19.82;41.45
13713;DHT22;6928;50.546;7.120;2023-04-30T14:26:58;20.45;38.61
13713;DHT22;6928;50.546;7.120;2023-04-30T14:29:26;19.92;39.46
13713;DHT22;6928;50.546;7.120;2023-04-30T14:31:52;19.82;40.70
13713;DHT22;6928;50.546;7.120;2023-04-30T14:34:19;20.09;39.94
13713;DHT22;6928;50.546;7.120;2023-04-30T14:36:46;19.83;40.11
13713;DHT22;6928;50.546;7.120;2023-04-30T14:39:12;19.62;40.82
13713;DHT22;6928;50.546;7.120;2023-04-30T14:41:42;19.14;42.04
13713;DHT22;6928;50.546;7.120;2023-04-30T14:44:10;19.32;41.91
13713;DHT22;6928;50.546;7.120;2023-04-30T14:46:37;19.26;41.92
13713;DHT22;6928;50.546;7.120;2023-04-30T14:49:05;19.30;42.46
13713;DHT22;6928;50.546;7.120;2023-04-30T14:51:32;19.27;42.29
13713;DHT22;6928;50.546;7.120;2023-04-30T14:54:00;19.35;42.34
13713;DHT22;6928;50.546;7.120;2023-04-30T14:56:27;19.52;42.29
13713;DHT22;6928;50.546;7.120;2023-04-30T14:58:53;19.34;41.36
13713;DHT22;6928;50.546;7.120;2023-04-30T15:01:22;19.54;41.03
13713;DHT22;6928;50.546;7.120;2023-04-30T15:03:48;19.52;41.30
13713;DHT22;6928;50.546;7.120;2023-04-30T15:06:15;19.55;40.90
13713;DHT22;6928;50.546;7.120;2023-04-30T15:08:42;19.72;40.83
13713;DHT22;6928;50.546;7.120;2023-04-30T15:11:09;19.83;40.73
13713;DHT22;6928;50.546;7.120;2023-04-30T15:13:38;19.70;41.75
13713;DHT22;6928;50.546;7.120;2023-04-30T15:16:05;19.89;42.10
13713;DHT22;6928;50.546;7.120;2023-04-30T15:18:34;19.57;41.25
13713;DHT22;6928;50.546;7.120;2023-04-30T15:21:01;19.65;41.85
13713;DHT22;6928;50.546;7.120;2023-04-30T15:23:28;19.51;43.05
13713;DHT22;6928;50.546;7.120;2023-04-30T15:25:56;19.23;43.27
13713;DHT22;6928;50.546;7.120;2023-04-30T15:28:23;19.51;41.74
13713;DHT22;6928;50.546;7.120;2023-04-30T15:30:50;19.62;41.78
13713;DHT22;6928;50.546;7.120;2023-04-30T15:33:17;19.49;42.68
13713;DHT22;6928;50.546;7.120;2023-04-30T15:35:46;19.31;43.63
13713;DHT22;6928;50.546;7.120;2023-04-30T15:38:13;19.32;41.55
13713;DHT22;6928;50.546;7.120;2023-04-30T15:40:40;19.17;42.58
13713;DHT22;6928;50.546;7.120;2023-04-30T15:43:07;19.38;42.23
13713;DHT22;6928;50.546;7.120;2023-04-30T15:45:34;19.34;41.51
13713;DHT22;6928;50.546;7.120;2023-04-30T15:48:01;18.96;42.12
13713;DHT22;6928;50.546;7.120;2023-04-30T15:50:28;19.24;41.52
13713;DHT22;6928;50.546;7.120;2023-04-30T15:52:57;19.07;41.69
13713;DHT22;6928;50.546;7.120;2023-04-30T15:55:23;19.27;42.11
13713;DHT22;6928;50.546;7.120;2023-04-30T15:57:50;19.17;42.12
13713;DHT22;6928;50.546;7.120;2023-04-30T16:00:17;19.63;41.44
13713;DHT22;6928;50.546;7.120;2023-04-30T16:02:44;19.45;41.42